METAR AND TAF INFORMATION
METAR FOR UHSS
ADDS - METARS form results

(0210 UTC 20 September 2019)
Data provider http://aviationweather.gov/metar/data/
 
METAR text: UHSS 200200Z 29006MPS 9999 -SHRA SCT033CB 12/06 Q1008 R01/70D NOSIG RMK MT OBSC QFE755/1007
Conditions at: UHSS (JUZNO-SAHALINSK , RU) observed 0200 UTC 20 September 2019
Temperature: 12.0°C (54°F)
Dewpoint: 6.0°C (43°F) [RH = 67%]
Pressure (altimeter): 29.76 inches Hg (1008.0 mb)
Winds: from the WNW (290 degrees) at 14 MPH (12 knots; 6.2 m/s)
Visibility: 6 or more miles (10+ km)
Ceiling: at least 12,000 feet AGL
Clouds: scattered clouds at 3300 feet AGL
Weather: -SHRA  (light rain showers)

METAR text: UHSS 200130Z 31005MPS 9999 SCT033CB 13/06 Q1008 R01/70D NOSIG RMK MT OBSC QFE754/1006
Conditions at: UHSS (JUZNO-SAHALINSK , RU) observed 0130 UTC 20 September 2019
Temperature: 13.0°C (55°F)
Dewpoint: 6.0°C (43°F) [RH = 62%]
Pressure (altimeter): 29.76 inches Hg (1008.0 mb)
Winds: from the NW (310 degrees) at 12 MPH (10 knots; 5.1 m/s)
Visibility: 6 or more miles (10+ km)
Ceiling: at least 12,000 feet AGL
Clouds: scattered clouds at 3300 feet AGL
Weather: no significant weather observed at this time

Forecast for: AMD
Text: TAF AMD UHSS 200105Z 2001/2106 31006G11MPS 9999 SCT030CB
Forecast period: 0100 to 1200 UTC 20 September 2019
Forecast type: FROM: standard forecast or significant change
Winds: from the NW (310 degrees) at 14 MPH (12 knots; 6.2 m/s)
gusting to 24 MPH (21 knots; 10.8 m/s)
Visibility: 6 or more miles 10+ km)
Ceiling: at least 12,000 feet AGL
Clouds: scattered clouds at 3000 feet AGL
Weather: no significant weather forecast for this period
Text: BECMG 2012/2014 34003MPS
Forecast period: 1200 UTC 20 September 2019 to 0000 UTC 21 September 2019
Forecast type: BECOMING: Conditions expected to become as follows by 1400 UTC 20 September 2019
Winds: from the NNW (340 degrees) at 7 MPH (6 knots; 3.1 m/s)
Visibility: 6 or more miles 10+ km)
Ceiling: at least 12,000 feet AGL
Clouds: scattered clouds at 3000 feet AGL
Weather: no significant weather forecast for this period
Text: BECMG 2100/2103 18003MPS
Forecast period: 0000 to 0600 UTC 21 September 2019
Forecast type: BECOMING: Conditions expected to become as follows by 0300 UTC 21 September 2019
Winds: from the S (180 degrees) at 7 MPH (6 knots; 3.1 m/s)
Visibility: 6 or more miles 10+ km)
Ceiling: at least 12,000 feet AGL
Clouds: scattered clouds at 3000 feet AGL
Weather: no significant weather forecast for this period

 AIRPORT MAP

 RUNWAY INFORMATION
Runway 01 Runway length 11155 ft Runway width 148 ft
Runway elevation 44 ft Runway displaced threshold 0 ft Runway heading 1
Runway 19 Runway length 11155 ft Runway width 148 ft
Runway elevation 49 ft Runway displaced threshold 2080 ft Runway heading 181

 AIRPORT FREQUENCIES
Type GCA Name RDR Frequency 120.6 MHZ
Type TWR Name TWR Frequency 120.6 MHZ

 AIRPORT NEAR NAVIGATION AIDS
Type NDB Name Khomutovo Frequency 505 KHZ
Type NDB Name Khomutovo Frequency 505 KHZ